sensor_id;sensor_type;location;lat;lon;timestamp;P1;durP1;ratioP1;P2;durP2;ratioP2
58643;SDS011;44411;49.994;8.660;2022-11-15T00:00:07;10.07;;;6.70;;
58643;SDS011;44411;49.994;8.660;2022-11-15T00:02:33;9.60;;;6.10;;
58643;SDS011;44411;49.994;8.660;2022-11-15T00:04:58;9.35;;;6.55;;
58643;SDS011;44411;49.994;8.660;2022-11-15T00:07:23;8.75;;;5.88;;
58643;SDS011;44411;49.994;8.660;2022-11-15T00:09:49;9.43;;;6.60;;
58643;SDS011;44411;49.994;8.660;2022-11-15T00:12:14;13.23;;;7.20;;
58643;SDS011;44411;49.994;8.660;2022-11-15T00:14:40;9.40;;;6.75;;
58643;SDS011;44411;49.994;8.660;2022-11-15T00:17:05;11.50;;;6.75;;
58643;SDS011;44411;49.994;8.660;2022-11-15T00:19:30;8.23;;;6.15;;
58643;SDS011;44411;49.994;8.660;2022-11-15T00:21:56;10.02;;;6.57;;
58643;SDS011;44411;49.994;8.660;2022-11-15T00:24:21;10.90;;;7.05;;
58643;SDS011;44411;49.994;8.660;2022-11-15T00:26:46;10.52;;;6.82;;
58643;SDS011;44411;49.994;8.660;2022-11-15T00:29:12;11.52;;;7.07;;
58643;SDS011;44411;49.994;8.660;2022-11-15T00:31:37;11.32;;;7.03;;
58643;SDS011;44411;49.994;8.660;2022-11-15T00:34:03;10.70;;;6.88;;
58643;SDS011;44411;49.994;8.660;2022-11-15T00:36:28;10.90;;;7.18;;
58643;SDS011;44411;49.994;8.660;2022-11-15T00:39:02;9.95;;;6.70;;
58643;SDS011;44411;49.994;8.660;2022-11-15T00:41:29;11.85;;;7.00;;
58643;SDS011;44411;49.994;8.660;2022-11-15T00:43:54;12.75;;;7.20;;
58643;SDS011;44411;49.994;8.660;2022-11-15T00:46:20;11.05;;;6.95;;
58643;SDS011;44411;49.994;8.660;2022-11-15T00:48:46;9.48;;;6.47;;
58643;SDS011;44411;49.994;8.660;2022-11-15T00:51:11;12.20;;;7.50;;
58643;SDS011;44411;49.994;8.660;2022-11-15T00:53:36;10.40;;;7.88;;
58643;SDS011;44411;49.994;8.660;2022-11-15T00:56:02;14.73;;;8.35;;
58643;SDS011;44411;49.994;8.660;2022-11-15T00:58:27;10.77;;;7.50;;
58643;SDS011;44411;49.994;8.660;2022-11-15T06:01:44;12.07;;;8.55;;
58643;SDS011;44411;49.994;8.660;2022-11-15T06:04:09;11.60;;;8.05;;
58643;SDS011;44411;49.994;8.660;2022-11-15T06:06:35;9.68;;;7.53;;
58643;SDS011;44411;49.994;8.660;2022-11-15T06:09:00;11.90;;;8.10;;
58643;SDS011;44411;49.994;8.660;2022-11-15T06:11:25;11.30;;;8.02;;
58643;SDS011;44411;49.994;8.660;2022-11-15T06:13:51;13.65;;;9.27;;
58643;SDS011;44411;49.994;8.660;2022-11-15T06:16:16;14.27;;;8.18;;
58643;SDS011;44411;49.994;8.660;2022-11-15T06:18:41;15.25;;;8.23;;
58643;SDS011;44411;49.994;8.660;2022-11-15T06:21:07;10.57;;;7.32;;
58643;SDS011;44411;49.994;8.660;2022-11-15T06:23:33;12.73;;;7.70;;
58643;SDS011;44411;49.994;8.660;2022-11-15T06:25:59;12.27;;;8.48;;
58643;SDS011;44411;49.994;8.660;2022-11-15T06:28:29;10.40;;;7.50;;
58643;SDS011;44411;49.994;8.660;2022-11-15T06:30:55;12.75;;;8.20;;
58643;SDS011;44411;49.994;8.660;2022-11-15T06:33:21;12.70;;;8.73;;
58643;SDS011;44411;49.994;8.660;2022-11-15T06:35:46;10.45;;;7.45;;
58643;SDS011;44411;49.994;8.660;2022-11-15T06:38:11;12.98;;;8.30;;
58643;SDS011;44411;49.994;8.660;2022-11-15T06:40:39;11.23;;;8.00;;
58643;SDS011;44411;49.994;8.660;2022-11-15T06:43:04;12.23;;;8.18;;
58643;SDS011;44411;49.994;8.660;2022-11-15T06:45:30;15.77;;;9.05;;
58643;SDS011;44411;49.994;8.660;2022-11-15T06:47:56;13.05;;;8.23;;
58643;SDS011;44411;49.994;8.660;2022-11-15T06:50:22;10.90;;;8.43;;
58643;SDS011;44411;49.994;8.660;2022-11-15T06:52:48;13.07;;;9.73;;
58643;SDS011;44411;49.994;8.660;2022-11-15T06:55:13;13.02;;;10.05;;
58643;SDS011;44411;49.994;8.660;2022-11-15T06:57:45;14.95;;;9.07;;
58643;SDS011;44411;49.994;8.660;2022-11-15T07:00:15;13.57;;;9.25;;
58643;SDS011;44411;49.994;8.660;2022-11-15T07:02:42;12.70;;;8.93;;
58643;SDS011;44411;49.994;8.660;2022-11-15T07:05:08;10.52;;;8.23;;
58643;SDS011;44411;49.994;8.660;2022-11-15T07:07:34;16.05;;;8.73;;
58643;SDS011;44411;49.994;8.660;2022-11-15T07:09:59;15.52;;;8.88;;
58643;SDS011;44411;49.994;8.660;2022-11-15T07:12:24;12.50;;;9.07;;
58643;SDS011;44411;49.994;8.660;2022-11-15T07:14:49;15.38;;;8.23;;
58643;SDS011;44411;49.994;8.660;2022-11-15T07:17:15;12.95;;;8.27;;
58643;SDS011;44411;49.994;8.660;2022-11-15T07:19:40;14.80;;;9.30;;
58643;SDS011;44411;49.994;8.660;2022-11-15T07:22:05;15.00;;;8.88;;
58643;SDS011;44411;49.994;8.660;2022-11-15T07:24:31;13.68;;;8.60;;
58643;SDS011;44411;49.994;8.660;2022-11-15T07:26:56;14.65;;;8.98;;
58643;SDS011;44411;49.994;8.660;2022-11-15T07:29:21;14.38;;;8.50;;
58643;SDS011;44411;49.994;8.660;2022-11-15T07:31:47;12.15;;;8.60;;
58643;SDS011;44411;49.994;8.660;2022-11-15T07:34:12;16.52;;;9.25;;
58643;SDS011;44411;49.994;8.660;2022-11-15T07:36:38;18.05;;;10.13;;
58643;SDS011;44411;49.994;8.660;2022-11-15T07:39:03;14.85;;;10.23;;
58643;SDS011;44411;49.994;8.660;2022-11-15T07:41:28;17.42;;;10.45;;
58643;SDS011;44411;49.994;8.660;2022-11-15T07:43:54;14.68;;;10.20;;
58643;SDS011;44411;49.994;8.660;2022-11-15T07:46:20;14.45;;;9.82;;
58643;SDS011;44411;49.994;8.660;2022-11-15T07:48:45;13.32;;;9.05;;
58643;SDS011;44411;49.994;8.660;2022-11-15T07:51:13;13.43;;;8.82;;
58643;SDS011;44411;49.994;8.660;2022-11-15T07:53:40;12.95;;;9.25;;
58643;SDS011;44411;49.994;8.660;2022-11-15T07:56:07;12.23;;;8.52;;
58643;SDS011;44411;49.994;8.660;2022-11-15T07:58:32;14.20;;;8.40;;
58643;SDS011;44411;49.994;8.660;2022-11-15T08:00:58;12.35;;;7.53;;
58643;SDS011;44411;49.994;8.660;2022-11-15T08:03:23;12.43;;;7.22;;
58643;SDS011;44411;49.994;8.660;2022-11-15T08:05:52;11.23;;;7.00;;
58643;SDS011;44411;49.994;8.660;2022-11-15T08:08:17;11.98;;;7.53;;
58643;SDS011;44411;49.994;8.660;2022-11-15T08:10:43;11.05;;;7.25;;
58643;SDS011;44411;49.994;8.660;2022-11-15T08:13:09;11.05;;;8.25;;
58643;SDS011;44411;49.994;8.660;2022-11-15T08:15:36;10.82;;;7.22;;
58643;SDS011;44411;49.994;8.660;2022-11-15T08:18:03;14.88;;;7.47;;
58643;SDS011;44411;49.994;8.660;2022-11-15T08:20:30;14.35;;;7.95;;
58643;SDS011;44411;49.994;8.660;2022-11-15T08:22:57;12.98;;;7.40;;
58643;SDS011;44411;49.994;8.660;2022-11-15T08:25:24;11.23;;;7.05;;
58643;SDS011;44411;49.994;8.660;2022-11-15T08:27:53;13.13;;;6.80;;
58643;SDS011;44411;49.994;8.660;2022-11-15T08:30:20;14.10;;;7.55;;
58643;SDS011;44411;49.994;8.660;2022-11-15T08:32:46;11.38;;;7.35;;
58643;SDS011;44411;49.994;8.660;2022-11-15T08:35:12;16.98;;;7.88;;
58643;SDS011;44411;49.994;8.660;2022-11-15T08:37:37;12.25;;;7.20;;
58643;SDS011;44411;49.994;8.660;2022-11-15T08:40:03;11.98;;;7.38;;
58643;SDS011;44411;49.994;8.660;2022-11-15T08:42:29;10.48;;;6.68;;
58643;SDS011;44411;49.994;8.660;2022-11-15T08:44:54;11.10;;;6.88;;
58643;SDS011;44411;49.994;8.660;2022-11-15T08:47:19;12.73;;;6.95;;
58643;SDS011;44411;49.994;8.660;2022-11-15T08:49:45;10.18;;;6.95;;
58643;SDS011;44411;49.994;8.660;2022-11-15T08:52:10;11.77;;;7.07;;
58643;SDS011;44411;49.994;8.660;2022-11-15T08:54:35;11.90;;;7.00;;
58643;SDS011;44411;49.994;8.660;2022-11-15T08:57:01;12.15;;;8.07;;
58643;SDS011;44411;49.994;8.660;2022-11-15T08:59:26;13.63;;;6.82;;
58643;SDS011;44411;49.994;8.660;2022-11-15T09:01:51;12.07;;;6.95;;
58643;SDS011;44411;49.994;8.660;2022-11-15T09:04:17;10.60;;;6.90;;
58643;SDS011;44411;49.994;8.660;2022-11-15T09:06:42;10.10;;;7.03;;
58643;SDS011;44411;49.994;8.660;2022-11-15T09:09:07;11.15;;;7.07;;
58643;SDS011;44411;49.994;8.660;2022-11-15T09:11:33;9.93;;;6.38;;
58643;SDS011;44411;49.994;8.660;2022-11-15T09:13:58;9.35;;;6.43;;
58643;SDS011;44411;49.994;8.660;2022-11-15T09:16:23;9.27;;;5.97;;
58643;SDS011;44411;49.994;8.660;2022-11-15T09:18:49;10.50;;;6.22;;
58643;SDS011;44411;49.994;8.660;2022-11-15T09:21:14;9.75;;;7.00;;
58643;SDS011;44411;49.994;8.660;2022-11-15T09:23:39;8.82;;;6.38;;
58643;SDS011;44411;49.994;8.660;2022-11-15T09:26:05;9.48;;;6.70;;
58643;SDS011;44411;49.994;8.660;2022-11-15T09:28:31;12.52;;;7.20;;
58643;SDS011;44411;49.994;8.660;2022-11-15T09:30:58;9.02;;;6.57;;
58643;SDS011;44411;49.994;8.660;2022-11-15T09:33:24;10.27;;;6.30;;
58643;SDS011;44411;49.994;8.660;2022-11-15T09:35:50;10.75;;;7.35;;
58643;SDS011;44411;49.994;8.660;2022-11-15T09:38:16;9.55;;;6.80;;
58643;SDS011;44411;49.994;8.660;2022-11-15T09:40:42;8.45;;;6.53;;
58643;SDS011;44411;49.994;8.660;2022-11-15T09:44:10;11.93;;;6.97;;
58643;SDS011;44411;49.994;8.660;2022-11-15T09:48:52;8.75;;;6.65;;
58643;SDS011;44411;49.994;8.660;2022-11-15T09:56:37;7.78;;;6.25;;
58643;SDS011;44411;49.994;8.660;2022-11-15T10:04:22;11.55;;;7.68;;
58643;SDS011;44411;49.994;8.660;2022-11-15T10:07:01;12.23;;;7.22;;
58643;SDS011;44411;49.994;8.660;2022-11-15T10:09:33;8.07;;;6.65;;
58643;SDS011;44411;49.994;8.660;2022-11-15T10:12:05;8.57;;;6.70;;
58643;SDS011;44411;49.994;8.660;2022-11-15T10:14:33;9.45;;;7.25;;
58643;SDS011;44411;49.994;8.660;2022-11-15T10:22:40;10.52;;;7.25;;
58643;SDS011;44411;49.994;8.660;2022-11-15T10:27:41;10.95;;;7.57;;
58643;SDS011;44411;49.994;8.660;2022-11-15T10:30:10;7.50;;;5.75;;
58643;SDS011;44411;49.994;8.660;2022-11-15T10:32:39;10.50;;;6.35;;
58643;SDS011;44411;49.994;8.660;2022-11-15T10:35:17;9.00;;;6.32;;
58643;SDS011;44411;49.994;8.660;2022-11-15T10:37:50;9.95;;;6.57;;
58643;SDS011;44411;49.994;8.660;2022-11-15T10:40:17;9.48;;;6.30;;
58643;SDS011;44411;49.994;8.660;2022-11-15T10:42:45;8.98;;;6.25;;
58643;SDS011;44411;49.994;8.660;2022-11-15T10:45:28;8.30;;;5.75;;
58643;SDS011;44411;49.994;8.660;2022-11-15T10:48:18;10.68;;;5.65;;
58643;SDS011;44411;49.994;8.660;2022-11-15T10:50:44;9.57;;;7.05;;
58643;SDS011;44411;49.994;8.660;2022-11-15T10:55:52;8.18;;;5.93;;
58643;SDS011;44411;49.994;8.660;2022-11-15T10:58:31;9.13;;;5.75;;
58643;SDS011;44411;49.994;8.660;2022-11-15T11:01:16;9.15;;;6.30;;
58643;SDS011;44411;49.994;8.660;2022-11-15T11:03:45;8.75;;;6.07;;
58643;SDS011;44411;49.994;8.660;2022-11-15T11:08:59;10.13;;;5.47;;
58643;SDS011;44411;49.994;8.660;2022-11-15T11:11:43;9.57;;;6.13;;
58643;SDS011;44411;49.994;8.660;2022-11-15T11:14:26;8.20;;;5.45;;
58643;SDS011;44411;49.994;8.660;2022-11-15T11:19:36;9.18;;;6.28;;
58643;SDS011;44411;49.994;8.660;2022-11-15T11:22:19;9.00;;;5.82;;
58643;SDS011;44411;49.994;8.660;2022-11-15T11:38:34;7.80;;;4.90;;
58643;SDS011;44411;49.994;8.660;2022-11-15T11:49:08;8.80;;;5.75;;
58643;SDS011;44411;49.994;8.660;2022-11-15T11:51:39;10.35;;;5.18;;
58643;SDS011;44411;49.994;8.660;2022-11-15T11:56:49;7.75;;;5.50;;
58643;SDS011;44411;49.994;8.660;2022-11-15T11:59:28;8.82;;;4.57;;
58643;SDS011;44411;49.994;8.660;2022-11-15T12:02:20;9.65;;;5.00;;
58643;SDS011;44411;49.994;8.660;2022-11-15T12:04:52;7.85;;;5.32;;
58643;SDS011;44411;49.994;8.660;2022-11-15T12:07:29;8.88;;;4.60;;
58643;SDS011;44411;49.994;8.660;2022-11-15T12:15:22;9.20;;;5.10;;
58643;SDS011;44411;49.994;8.660;2022-11-15T12:18:01;7.78;;;4.20;;
58643;SDS011;44411;49.994;8.660;2022-11-15T12:20:29;7.43;;;4.38;;
58643;SDS011;44411;49.994;8.660;2022-11-15T12:23:04;7.40;;;4.32;;
58643;SDS011;44411;49.994;8.660;2022-11-15T12:30:41;7.80;;;3.63;;
58643;SDS011;44411;49.994;8.660;2022-11-15T12:36:50;4.78;;;2.80;;
58643;SDS011;44411;49.994;8.660;2022-11-15T12:39:09;5.47;;;3.35;;
58643;SDS011;44411;49.994;8.660;2022-11-15T13:17:39;4.80;;;2.25;;
58643;SDS011;44411;49.994;8.660;2022-11-15T13:20:15;4.20;;;1.97;;
58643;SDS011;44411;49.994;8.660;2022-11-15T13:22:43;5.32;;;2.75;;
58643;SDS011;44411;49.994;8.660;2022-11-15T13:27:52;4.97;;;2.60;;
58643;SDS011;44411;49.994;8.660;2022-11-15T13:30:29;4.80;;;2.80;;
58643;SDS011;44411;49.994;8.660;2022-11-15T13:32:56;5.85;;;2.47;;
58643;SDS011;44411;49.994;8.660;2022-11-15T13:35:27;5.90;;;2.65;;
58643;SDS011;44411;49.994;8.660;2022-11-15T13:37:55;4.28;;;2.35;;
58643;SDS011;44411;49.994;8.660;2022-11-15T13:40:23;7.07;;;2.90;;
58643;SDS011;44411;49.994;8.660;2022-11-15T13:42:49;6.90;;;3.10;;
58643;SDS011;44411;49.994;8.660;2022-11-15T13:45:16;3.88;;;2.33;;
58643;SDS011;44411;49.994;8.660;2022-11-15T13:47:43;4.60;;;2.53;;
58643;SDS011;44411;49.994;8.660;2022-11-15T13:50:12;4.47;;;2.50;;
58643;SDS011;44411;49.994;8.660;2022-11-15T13:52:38;6.88;;;2.60;;
58643;SDS011;44411;49.994;8.660;2022-11-15T13:55:12;4.43;;;2.67;;
58643;SDS011;44411;49.994;8.660;2022-11-15T13:57:44;5.40;;;2.45;;
58643;SDS011;44411;49.994;8.660;2022-11-15T14:06:03;5.15;;;2.33;;
58643;SDS011;44411;49.994;8.660;2022-11-15T14:08:31;3.63;;;2.30;;
58643;SDS011;44411;49.994;8.660;2022-11-15T14:13:40;6.72;;;2.88;;
58643;SDS011;44411;49.994;8.660;2022-11-15T14:16:19;4.72;;;2.28;;
58643;SDS011;44411;49.994;8.660;2022-11-15T14:18:47;5.18;;;2.67;;
58643;SDS011;44411;49.994;8.660;2022-11-15T14:21:15;5.75;;;3.22;;
58643;SDS011;44411;49.994;8.660;2022-11-15T14:23:41;8.00;;;4.13;;
58643;SDS011;44411;49.994;8.660;2022-11-15T14:26:10;13.82;;;6.15;;
58643;SDS011;44411;49.994;8.660;2022-11-15T14:28:51;16.88;;;6.65;;
58643;SDS011;44411;49.994;8.660;2022-11-15T14:31:16;17.63;;;8.05;;
58643;SDS011;44411;49.994;8.660;2022-11-15T14:33:46;15.50;;;6.68;;
58643;SDS011;44411;49.994;8.660;2022-11-15T14:36:19;13.52;;;6.03;;
58643;SDS011;44411;49.994;8.660;2022-11-15T14:38:46;17.88;;;9.80;;
58643;SDS011;44411;49.994;8.660;2022-11-15T14:41:22;23.27;;;11.05;;
58643;SDS011;44411;49.994;8.660;2022-11-15T14:43:57;22.10;;;11.82;;
58643;SDS011;44411;49.994;8.660;2022-11-15T14:46:23;22.15;;;10.20;;
58643;SDS011;44411;49.994;8.660;2022-11-15T14:48:48;10.70;;;6.20;;
58643;SDS011;44411;49.994;8.660;2022-11-15T14:51:14;16.20;;;7.40;;
58643;SDS011;44411;49.994;8.660;2022-11-15T14:53:43;15.95;;;8.50;;
58643;SDS011;44411;49.994;8.660;2022-11-15T14:56:09;13.18;;;8.40;;
58643;SDS011;44411;49.994;8.660;2022-11-15T14:58:35;12.10;;;8.68;;
58643;SDS011;44411;49.994;8.660;2022-11-15T15:03:49;16.33;;;10.02;;
58643;SDS011;44411;49.994;8.660;2022-11-15T15:06:17;14.73;;;7.10;;
58643;SDS011;44411;49.994;8.660;2022-11-15T15:08:43;11.25;;;6.82;;
58643;SDS011;44411;49.994;8.660;2022-11-15T15:11:29;7.20;;;4.45;;
58643;SDS011;44411;49.994;8.660;2022-11-15T15:13:56;8.82;;;3.80;;
58643;SDS011;44411;49.994;8.660;2022-11-15T15:16:25;8.88;;;4.22;;
58643;SDS011;44411;49.994;8.660;2022-11-15T15:18:51;6.72;;;4.13;;
58643;SDS011;44411;49.994;8.660;2022-11-15T15:21:18;8.30;;;3.88;;
58643;SDS011;44411;49.994;8.660;2022-11-15T15:23:46;8.25;;;5.00;;
58643;SDS011;44411;49.994;8.660;2022-11-15T15:26:11;8.50;;;5.10;;
58643;SDS011;44411;49.994;8.660;2022-11-15T15:28:37;9.30;;;5.30;;
58643;SDS011;44411;49.994;8.660;2022-11-15T15:31:05;7.65;;;5.13;;
58643;SDS011;44411;49.994;8.660;2022-11-15T15:33:32;9.27;;;5.10;;
58643;SDS011;44411;49.994;8.660;2022-11-15T15:35:57;7.50;;;4.32;;
58643;SDS011;44411;49.994;8.660;2022-11-15T15:38:24;6.28;;;4.20;;
58643;SDS011;44411;49.994;8.660;2022-11-15T15:40:49;6.53;;;3.20;;
58643;SDS011;44411;49.994;8.660;2022-11-15T15:43:14;6.10;;;3.47;;
58643;SDS011;44411;49.994;8.660;2022-11-15T15:45:40;6.43;;;3.28;;
58643;SDS011;44411;49.994;8.660;2022-11-15T15:48:14;6.53;;;3.72;;
58643;SDS011;44411;49.994;8.660;2022-11-15T15:50:40;6.32;;;3.22;;
58643;SDS011;44411;49.994;8.660;2022-11-15T15:53:07;6.97;;;3.88;;
58643;SDS011;44411;49.994;8.660;2022-11-15T15:55:35;5.95;;;3.63;;
58643;SDS011;44411;49.994;8.660;2022-11-15T15:58:01;5.30;;;3.75;;
58643;SDS011;44411;49.994;8.660;2022-11-15T16:00:27;5.22;;;3.60;;
58643;SDS011;44411;49.994;8.660;2022-11-15T16:02:58;7.38;;;4.20;;
58643;SDS011;44411;49.994;8.660;2022-11-15T16:05:24;6.78;;;3.90;;
58643;SDS011;44411;49.994;8.660;2022-11-15T16:07:49;7.40;;;4.57;;
58643;SDS011;44411;49.994;8.660;2022-11-15T16:12:50;6.43;;;4.53;;
58643;SDS011;44411;49.994;8.660;2022-11-15T16:15:15;5.88;;;3.85;;
58643;SDS011;44411;49.994;8.660;2022-11-15T16:17:44;6.85;;;3.80;;
58643;SDS011;44411;49.994;8.660;2022-11-15T16:20:19;8.70;;;5.13;;
58643;SDS011;44411;49.994;8.660;2022-11-15T16:23:08;7.60;;;4.90;;
58643;SDS011;44411;49.994;8.660;2022-11-15T16:25:42;7.13;;;4.85;;
58643;SDS011;44411;49.994;8.660;2022-11-15T16:28:30;9.38;;;4.68;;
58643;SDS011;44411;49.994;8.660;2022-11-15T16:31:03;7.68;;;4.40;;
58643;SDS011;44411;49.994;8.660;2022-11-15T16:33:30;9.25;;;4.68;;
58643;SDS011;44411;49.994;8.660;2022-11-15T16:35:56;9.48;;;5.43;;
58643;SDS011;44411;49.994;8.660;2022-11-15T16:38:21;7.25;;;4.43;;
58643;SDS011;44411;49.994;8.660;2022-11-15T16:40:47;8.93;;;5.35;;
58643;SDS011;44411;49.994;8.660;2022-11-15T16:43:12;7.90;;;5.30;;
58643;SDS011;44411;49.994;8.660;2022-11-15T16:45:38;7.80;;;5.20;;
58643;SDS011;44411;49.994;8.660;2022-11-15T16:48:03;9.73;;;5.65;;
58643;SDS011;44411;49.994;8.660;2022-11-15T16:50:30;7.85;;;4.80;;
58643;SDS011;44411;49.994;8.660;2022-11-15T16:52:59;7.60;;;5.75;;
58643;SDS011;44411;49.994;8.660;2022-11-15T16:55:25;7.63;;;5.10;;
58643;SDS011;44411;49.994;8.660;2022-11-15T16:57:53;8.52;;;5.22;;
58643;SDS011;44411;49.994;8.660;2022-11-15T17:00:20;9.63;;;4.90;;
58643;SDS011;44411;49.994;8.660;2022-11-15T17:02:47;8.25;;;5.63;;
58643;SDS011;44411;49.994;8.660;2022-11-15T17:05:15;7.88;;;4.82;;
58643;SDS011;44411;49.994;8.660;2022-11-15T17:07:42;7.88;;;4.97;;
58643;SDS011;44411;49.994;8.660;2022-11-15T17:10:08;8.90;;;4.47;;
58643;SDS011;44411;49.994;8.660;2022-11-15T17:12:35;6.93;;;4.05;;
58643;SDS011;44411;49.994;8.660;2022-11-15T17:15:00;7.65;;;4.55;;
58643;SDS011;44411;49.994;8.660;2022-11-15T17:17:26;8.15;;;4.97;;
58643;SDS011;44411;49.994;8.660;2022-11-15T17:19:52;9.85;;;5.18;;
58643;SDS011;44411;49.994;8.660;2022-11-15T17:22:18;9.25;;;4.85;;
58643;SDS011;44411;49.994;8.660;2022-11-15T17:24:44;8.23;;;5.30;;
58643;SDS011;44411;49.994;8.660;2022-11-15T17:27:09;11.80;;;5.70;;
58643;SDS011;44411;49.994;8.660;2022-11-15T17:29:34;8.07;;;4.35;;
58643;SDS011;44411;49.994;8.660;2022-11-15T17:32:00;6.53;;;3.55;;
58643;SDS011;44411;49.994;8.660;2022-11-15T17:34:25;8.27;;;3.92;;
58643;SDS011;44411;49.994;8.660;2022-11-15T17:36:50;6.03;;;3.25;;
58643;SDS011;44411;49.994;8.660;2022-11-15T17:39:16;9.75;;;3.63;;
58643;SDS011;44411;49.994;8.660;2022-11-15T17:41:43;5.82;;;3.45;;
58643;SDS011;44411;49.994;8.660;2022-11-15T17:44:08;5.03;;;3.25;;
58643;SDS011;44411;49.994;8.660;2022-11-15T17:46:34;8.02;;;3.70;;
58643;SDS011;44411;49.994;8.660;2022-11-15T17:49:00;4.75;;;3.03;;
58643;SDS011;44411;49.994;8.660;2022-11-15T17:51:26;5.45;;;3.10;;
58643;SDS011;44411;49.994;8.660;2022-11-15T17:53:51;6.40;;;2.95;;
58643;SDS011;44411;49.994;8.660;2022-11-15T17:56:18;5.68;;;2.83;;
58643;SDS011;44411;49.994;8.660;2022-11-15T17:58:51;6.05;;;3.13;;
58643;SDS011;44411;49.994;8.660;2022-11-15T18:01:22;5.50;;;2.90;;
58643;SDS011;44411;49.994;8.660;2022-11-15T18:03:52;5.60;;;2.80;;
58643;SDS011;44411;49.994;8.660;2022-11-15T18:06:19;5.72;;;3.30;;
58643;SDS011;44411;49.994;8.660;2022-11-15T18:08:47;5.55;;;3.15;;
58643;SDS011;44411;49.994;8.660;2022-11-15T18:11:15;4.75;;;3.00;;
58643;SDS011;44411;49.994;8.660;2022-11-15T18:13:47;4.60;;;2.58;;
58643;SDS011;44411;49.994;8.660;2022-11-15T18:16:15;4.72;;;3.05;;
58643;SDS011;44411;49.994;8.660;2022-11-15T18:18:43;6.57;;;2.85;;
58643;SDS011;44411;49.994;8.660;2022-11-15T18:21:11;4.75;;;2.90;;
58643;SDS011;44411;49.994;8.660;2022-11-15T18:23:45;8.45;;;3.72;;
58643;SDS011;44411;49.994;8.660;2022-11-15T18:26:12;5.93;;;3.17;;
58643;SDS011;44411;49.994;8.660;2022-11-15T18:28:46;6.13;;;3.22;;
58643;SDS011;44411;49.994;8.660;2022-11-15T18:31:17;7.47;;;4.40;;
58643;SDS011;44411;49.994;8.660;2022-11-15T18:33:49;7.65;;;5.10;;
58643;SDS011;44411;49.994;8.660;2022-11-15T18:36:24;7.45;;;4.22;;
58643;SDS011;44411;49.994;8.660;2022-11-15T18:38:55;8.32;;;4.35;;
58643;SDS011;44411;49.994;8.660;2022-11-15T18:41:20;6.05;;;4.05;;
58643;SDS011;44411;49.994;8.660;2022-11-15T18:43:49;8.32;;;4.68;;
58643;SDS011;44411;49.994;8.660;2022-11-15T18:46:17;6.70;;;3.65;;
58643;SDS011;44411;49.994;8.660;2022-11-15T18:48:45;6.53;;;3.38;;
58643;SDS011;44411;49.994;8.660;2022-11-15T18:51:13;6.85;;;3.58;;
58643;SDS011;44411;49.994;8.660;2022-11-15T18:53:40;7.45;;;3.20;;
58643;SDS011;44411;49.994;8.660;2022-11-15T18:56:07;6.47;;;3.47;;
58643;SDS011;44411;49.994;8.660;2022-11-15T18:58:36;6.38;;;3.72;;
58643;SDS011;44411;49.994;8.660;2022-11-15T19:01:08;8.45;;;4.68;;
58643;SDS011;44411;49.994;8.660;2022-11-15T19:03:37;6.53;;;3.80;;
58643;SDS011;44411;49.994;8.660;2022-11-15T19:08:35;5.13;;;3.55;;
58643;SDS011;44411;49.994;8.660;2022-11-15T19:11:44;6.70;;;4.05;;
58643;SDS011;44411;49.994;8.660;2022-11-15T19:13:56;8.63;;;4.85;;
58643;SDS011;44411;49.994;8.660;2022-11-15T19:16:34;8.35;;;4.53;;
58643;SDS011;44411;49.994;8.660;2022-11-15T19:19:02;7.00;;;4.57;;
58643;SDS011;44411;49.994;8.660;2022-11-15T19:21:31;8.00;;;5.15;;
58643;SDS011;44411;49.994;8.660;2022-11-15T19:23:57;6.95;;;4.45;;
58643;SDS011;44411;49.994;8.660;2022-11-15T19:26:23;8.98;;;5.07;;
58643;SDS011;44411;49.994;8.660;2022-11-15T19:28:53;6.63;;;4.68;;
58643;SDS011;44411;49.994;8.660;2022-11-15T19:31:21;6.53;;;4.45;;
58643;SDS011;44411;49.994;8.660;2022-11-15T19:33:47;6.55;;;4.38;;
58643;SDS011;44411;49.994;8.660;2022-11-15T19:36:15;5.68;;;3.63;;
58643;SDS011;44411;49.994;8.660;2022-11-15T19:38:43;7.40;;;3.65;;
58643;SDS011;44411;49.994;8.660;2022-11-15T19:41:10;6.78;;;4.45;;
58643;SDS011;44411;49.994;8.660;2022-11-15T19:43:38;6.68;;;3.97;;
58643;SDS011;44411;49.994;8.660;2022-11-15T19:46:04;6.65;;;4.00;;
58643;SDS011;44411;49.994;8.660;2022-11-15T19:48:31;6.82;;;3.80;;
58643;SDS011;44411;49.994;8.660;2022-11-15T19:51:01;7.47;;;3.95;;
58643;SDS011;44411;49.994;8.660;2022-11-15T19:53:31;5.90;;;3.67;;
58643;SDS011;44411;49.994;8.660;2022-11-15T19:55:59;6.45;;;3.85;;
58643;SDS011;44411;49.994;8.660;2022-11-15T19:58:26;6.57;;;3.75;;
58643;SDS011;44411;49.994;8.660;2022-11-15T20:03:30;6.68;;;4.10;;
58643;SDS011;44411;49.994;8.660;2022-11-15T20:06:00;8.30;;;4.72;;
58643;SDS011;44411;49.994;8.660;2022-11-15T20:08:31;9.60;;;5.47;;
58643;SDS011;44411;49.994;8.660;2022-11-15T20:10:57;7.32;;;5.30;;
58643;SDS011;44411;49.994;8.660;2022-11-15T20:13:23;9.75;;;5.20;;
58643;SDS011;44411;49.994;8.660;2022-11-15T20:15:49;7.22;;;5.20;;
58643;SDS011;44411;49.994;8.660;2022-11-15T20:18:14;7.93;;;4.82;;
58643;SDS011;44411;49.994;8.660;2022-11-15T20:20:40;7.22;;;4.47;;
58643;SDS011;44411;49.994;8.660;2022-11-15T20:23:06;6.57;;;4.03;;
58643;SDS011;44411;49.994;8.660;2022-11-15T20:25:31;9.80;;;5.05;;
58643;SDS011;44411;49.994;8.660;2022-11-15T20:27:56;7.72;;;4.95;;
58643;SDS011;44411;49.994;8.660;2022-11-15T20:30:22;10.00;;;5.38;;
58643;SDS011;44411;49.994;8.660;2022-11-15T20:32:47;10.18;;;4.90;;
58643;SDS011;44411;49.994;8.660;2022-11-15T20:35:12;8.18;;;4.70;;
58643;SDS011;44411;49.994;8.660;2022-11-15T20:37:38;9.85;;;5.20;;
58643;SDS011;44411;49.994;8.660;2022-11-15T20:40:03;7.43;;;5.13;;
58643;SDS011;44411;49.994;8.660;2022-11-15T20:42:29;9.60;;;5.45;;
58643;SDS011;44411;49.994;8.660;2022-11-15T20:44:54;8.82;;;5.10;;
58643;SDS011;44411;49.994;8.660;2022-11-15T20:47:20;8.98;;;5.53;;
58643;SDS011;44411;49.994;8.660;2022-11-15T20:49:45;9.38;;;4.95;;
58643;SDS011;44411;49.994;8.660;2022-11-15T20:52:10;8.32;;;5.07;;
58643;SDS011;44411;49.994;8.660;2022-11-15T20:54:35;7.50;;;4.85;;
58643;SDS011;44411;49.994;8.660;2022-11-15T20:57:01;7.32;;;5.03;;
58643;SDS011;44411;49.994;8.660;2022-11-15T20:59:26;10.05;;;6.38;;
58643;SDS011;44411;49.994;8.660;2022-11-15T21:01:52;9.65;;;7.03;;
58643;SDS011;44411;49.994;8.660;2022-11-15T21:04:17;8.70;;;5.45;;
58643;SDS011;44411;49.994;8.660;2022-11-15T21:06:42;9.45;;;6.15;;
58643;SDS011;44411;49.994;8.660;2022-11-15T21:09:08;9.00;;;6.45;;
58643;SDS011;44411;49.994;8.660;2022-11-15T21:11:52;8.20;;;6.20;;
58643;SDS011;44411;49.994;8.660;2022-11-15T21:14:35;11.30;;;6.78;;
58643;SDS011;44411;49.994;8.660;2022-11-15T21:17:02;10.07;;;7.80;;
58643;SDS011;44411;49.994;8.660;2022-11-15T21:19:27;8.82;;;6.55;;
58643;SDS011;44411;49.994;8.660;2022-11-15T21:21:53;9.95;;;6.07;;
58643;SDS011;44411;49.994;8.660;2022-11-15T21:24:18;8.95;;;5.32;;
58643;SDS011;44411;49.994;8.660;2022-11-15T21:26:44;10.95;;;6.00;;
58643;SDS011;44411;49.994;8.660;2022-11-15T21:29:10;8.57;;;6.20;;
58643;SDS011;44411;49.994;8.660;2022-11-15T21:31:40;9.30;;;6.45;;
58643;SDS011;44411;49.994;8.660;2022-11-15T21:34:08;10.50;;;5.97;;
58643;SDS011;44411;49.994;8.660;2022-11-15T21:36:33;8.68;;;6.50;;
58643;SDS011;44411;49.994;8.660;2022-11-15T21:38:59;11.65;;;7.07;;
58643;SDS011;44411;49.994;8.660;2022-11-15T21:41:24;8.70;;;6.03;;
58643;SDS011;44411;49.994;8.660;2022-11-15T21:43:49;10.55;;;6.25;;
58643;SDS011;44411;49.994;8.660;2022-11-15T21:46:15;10.98;;;6.72;;
58643;SDS011;44411;49.994;8.660;2022-11-15T21:48:40;8.20;;;6.22;;
58643;SDS011;44411;49.994;8.660;2022-11-15T21:51:07;9.18;;;5.60;;
58643;SDS011;44411;49.994;8.660;2022-11-15T21:53:35;9.48;;;6.47;;